Savoonga Airport
PASA : now visible

Aeroporto :











RITROVATECI SU...

 
LOGIN :

Iscrizione | Disclaimer

   EN    FR    IT 

 









Sommario :    VFR   VFR Marginale   IFR   IFR Intensivo   IFR Molto Intensivo
Visibilità : 
Base nubi : 
>= 8 km
>= 3000ft
5 / 8 km
1000 / 3000 ft
1500m / 5 km
500 / 1000 ft
800 / 1500m
200 / 500 ft
< 800m
< 200 ft
Simboli :   Temporali  Nebbia  Neve Forte  Precipitazioni Forti  Vento > 20 kt






- Altitudine del aeroporto : 53 ft
- Codice IATA : SVA


PASA - Savoonga

ULTIMO METAR :
  • 072256Z AUTO 00000KT 10SM CLR M05/M16 A3006 RMK AO2 SLP179 T10501156 FZRANO

METARs OBSOLETI :
  • 072156Z AUTO 00000KT 10SM CLR M07/M18 A3006 RMK AO2 SLP181 T10671178 FZRANO
  • 072056Z AUTO 00000KT 10SM CLR M11/M18 A3007 RMK AO2 SLP182 T11061178 50003 FZRANO

TAF N/A



MetMap, La meteo Aeronautica in un colpo d'occhio ! - Copyright ORBIFLY Dicembre 2007 - Disclaimer

ORBIFLY MET'MAP TEAM :

Programmazione e sviluppo : Alexandra Zaïnal
Concezione : Baudouin d'Aumeries
Aiuto per la programmazione : Marc-Olivier Méhu
Supporto tecnico e logistico : Manuel Goepfert
Aiuto per la traduzione : Arnaldo La Scala

Contatto : metmap@orbifly.com




FONTI E CREDITI :

   NOAA       Earth
Advisory